createdAt,value
2022-09-22T00:01:27.824Z,9.65
2022-09-22T00:03:58.137Z,9.63
2022-09-22T00:06:26.808Z,9.58
2022-09-22T00:08:55.532Z,9.61
2022-09-22T00:11:25.054Z,9.59
2022-09-22T00:13:54.766Z,9.58
2022-09-22T00:16:24.664Z,9.59
2022-09-22T00:18:52.659Z,9.60
2022-09-22T00:21:23.582Z,9.62
2022-09-22T00:23:52.213Z,9.62
2022-09-22T00:26:21.711Z,9.63
2022-09-22T00:28:51.258Z,9.65
2022-09-22T00:31:20.335Z,9.65
2022-09-22T00:33:48.339Z,9.64
2022-09-22T00:36:16.686Z,9.61
2022-09-22T00:38:46.614Z,9.59
2022-09-22T00:41:18.869Z,9.53
2022-09-22T00:43:48.317Z,9.50
2022-09-22T00:46:17.932Z,9.46
2022-09-22T00:48:49.417Z,9.41
2022-09-22T00:51:18.001Z,9.37
2022-09-22T00:53:47.338Z,9.31
2022-09-22T00:56:16.249Z,9.24
2022-09-22T00:58:46.665Z,9.22
2022-09-22T01:01:15.595Z,9.20
2022-09-22T01:03:43.943Z,9.17
2022-09-22T01:06:13.738Z,9.19
2022-09-22T01:08:43.656Z,9.22
2022-09-22T01:11:13.260Z,9.21
2022-09-22T01:13:43.416Z,9.15
2022-09-22T01:16:23.029Z,9.20
2022-09-22T01:18:57.952Z,9.10
2022-09-22T01:21:33.780Z,9.10
2022-09-22T01:24:35.171Z,9.08
2022-09-22T01:27:44.152Z,9.02
2022-09-22T01:30:21.043Z,8.96
2022-09-22T01:33:02.913Z,8.98
2022-09-22T01:35:32.710Z,8.98
2022-09-22T01:38:05.511Z,8.95
2022-09-22T01:40:35.594Z,8.95
2022-09-22T01:43:09.055Z,9.00
2022-09-22T01:45:38.343Z,9.07
2022-09-22T01:48:09.118Z,9.17
2022-09-22T01:50:40.891Z,9.26
2022-09-22T01:53:10.687Z,9.41
2022-09-22T01:55:39.457Z,9.52
2022-09-22T01:58:08.675Z,9.66
2022-09-22T02:00:38.529Z,9.75
2022-09-22T02:03:07.984Z,9.81
2022-09-22T02:05:38.777Z,9.90
2022-09-22T02:08:09.992Z,9.96
2022-09-22T02:10:39.671Z,9.99
2022-09-22T02:13:07.592Z,9.99
2022-09-22T02:15:53.026Z,10.03
2022-09-22T02:18:24.215Z,10.05
2022-09-22T02:20:52.768Z,10.02
2022-09-22T02:23:20.690Z,9.97
2022-09-22T02:25:48.605Z,9.92
2022-09-22T02:28:17.485Z,9.87
2022-09-22T02:31:04.366Z,9.81
2022-09-22T02:33:38.178Z,9.73
2022-09-22T02:36:14.964Z,9.55
2022-09-22T02:38:45.770Z,9.50
2022-09-22T02:41:16.296Z,9.48
2022-09-22T02:43:47.824Z,9.40
2022-09-22T02:46:19.524Z,9.38
2022-09-22T02:48:49.542Z,9.28
2022-09-22T02:51:18.489Z,9.28
2022-09-22T02:53:46.414Z,9.17
2022-09-22T02:56:14.356Z,9.15
2022-09-22T02:58:42.281Z,9.13
2022-09-22T03:01:10.244Z,9.09
2022-09-22T03:03:38.212Z,9.10
2022-09-22T03:06:07.850Z,9.09
2022-09-22T03:08:36.796Z,9.13
2022-09-22T03:11:04.814Z,9.13
2022-09-22T03:13:32.750Z,9.13
2022-09-22T03:16:00.734Z,9.14
2022-09-22T03:18:28.723Z,9.18
2022-09-22T03:20:56.685Z,9.21
2022-09-22T03:23:26.050Z,9.27
2022-09-22T03:25:53.994Z,9.34
2022-09-22T03:28:22.040Z,9.40
2022-09-22T03:30:50.051Z,9.47
2022-09-22T03:33:18.029Z,9.52
2022-09-22T03:35:45.997Z,9.52
2022-09-22T03:38:13.892Z,9.49
2022-09-22T03:40:43.438Z,9.45
2022-09-22T03:43:16.468Z,9.41
2022-09-22T03:45:44.738Z,9.35
2022-09-22T03:48:12.752Z,9.32
2022-09-22T03:50:40.683Z,9.28
2022-09-22T03:53:08.613Z,9.28
2022-09-22T03:55:37.300Z,9.28
2022-09-22T03:58:06.589Z,9.32
2022-09-22T04:00:34.512Z,9.38
2022-09-22T04:03:02.429Z,9.41
2022-09-22T04:05:30.333Z,9.40
2022-09-22T04:07:58.289Z,9.41
2022-09-22T04:10:26.924Z,9.45
2022-09-22T04:12:54.859Z,9.48
2022-09-22T04:15:24.168Z,9.53
2022-09-22T04:17:52.107Z,9.58
2022-09-22T04:20:20.060Z,9.63
2022-09-22T04:22:47.989Z,9.70
2022-09-22T04:25:16.104Z,9.80
2022-09-22T04:27:44.031Z,9.86
2022-09-22T04:30:13.070Z,9.93
2022-09-22T04:32:42.395Z,9.98
2022-09-22T04:35:10.701Z,10.01
2022-09-22T04:37:38.628Z,10.09
2022-09-22T04:40:07.566Z,10.17
2022-09-22T04:42:35.503Z,10.23
2022-09-22T04:45:03.447Z,10.31
2022-09-22T04:47:31.453Z,10.37
2022-09-22T04:50:00.865Z,10.52
2022-09-22T04:52:28.802Z,10.88
2022-09-22T04:54:56.751Z,11.08
2022-09-22T04:57:24.703Z,11.17
2022-09-22T04:59:52.599Z,11.23
2022-09-22T05:02:20.532Z,11.24
2022-09-22T05:04:48.457Z,11.28
2022-09-22T05:07:17.735Z,11.36
2022-09-22T05:09:46.141Z,11.44
2022-09-22T05:12:14.092Z,11.54
2022-09-22T05:14:42.339Z,11.67
2022-09-22T05:17:10.259Z,11.87
2022-09-22T05:19:38.654Z,12.12
2022-09-22T05:22:06.607Z,12.29
2022-09-22T05:24:35.962Z,12.40
2022-09-22T05:27:04.845Z,12.49
2022-09-22T05:29:33.028Z,12.61
2022-09-22T05:32:01.048Z,12.65
2022-09-22T05:34:28.987Z,12.76
2022-09-22T05:36:56.912Z,12.82
2022-09-22T05:39:24.902Z,12.98
2022-09-22T05:41:54.189Z,13.17
2022-09-22T05:44:23.657Z,13.22
2022-09-22T05:46:51.585Z,13.29
2022-09-22T05:49:19.511Z,13.38
2022-09-22T05:51:47.611Z,13.50
2022-09-22T05:54:18.037Z,13.37
2022-09-22T05:56:48.001Z,13.25
2022-09-22T05:59:17.294Z,13.37
2022-09-22T06:01:45.239Z,13.51
2022-09-22T06:04:13.191Z,13.58
2022-09-22T06:06:41.947Z,13.87
2022-09-22T06:09:09.859Z,14.04
2022-09-22T06:11:37.804Z,14.26
2022-09-22T06:14:05.764Z,14.47
2022-09-22T06:16:35.128Z,14.80
2022-09-22T06:19:03.324Z,14.93
2022-09-22T06:21:31.238Z,14.87
2022-09-22T06:23:59.208Z,14.93
2022-09-22T06:26:27.210Z,14.97
2022-09-22T06:28:55.121Z,14.95
2022-09-22T06:31:23.084Z,15.09
2022-09-22T06:33:54.624Z,15.13
2022-09-22T06:36:31.208Z,15.22
2022-09-22T06:38:59.422Z,15.06
2022-09-22T06:41:27.479Z,15.08
2022-09-22T06:43:56.187Z,15.12
2022-09-22T06:46:24.676Z,15.21
2022-09-22T06:48:56.753Z,15.23
2022-09-22T06:51:25.487Z,15.19
2022-09-22T06:53:54.844Z,15.30
2022-09-22T06:56:23.655Z,15.76
2022-09-22T06:59:08.860Z,16.13
2022-09-22T07:01:37.864Z,16.65
2022-09-22T07:04:07.289Z,17.13
2022-09-22T07:06:37.167Z,17.59
2022-09-22T07:09:05.470Z,18.06
2022-09-22T07:11:37.458Z,18.10
2022-09-22T07:14:08.627Z,17.82
2022-09-22T07:16:37.245Z,17.71
2022-09-22T07:19:05.898Z,17.46
2022-09-22T07:21:38.320Z,17.47
2022-09-22T07:24:08.334Z,17.49
2022-09-22T07:26:37.141Z,17.71
2022-09-22T07:29:06.183Z,17.74
2022-09-22T07:31:34.835Z,17.76
2022-09-22T07:34:02.948Z,17.52
2022-09-22T07:36:31.715Z,17.38
2022-09-22T07:39:04.120Z,17.42
2022-09-22T07:41:34.104Z,17.46
2022-09-22T07:44:22.766Z,17.31
2022-09-22T07:46:50.739Z,17.43
2022-09-22T07:49:19.686Z,17.47
2022-09-22T07:51:47.625Z,16.82
2022-09-22T07:54:17.054Z,17.18
2022-09-22T07:56:45.573Z,17.32
2022-09-22T07:59:15.174Z,17.33
2022-09-22T08:01:44.336Z,16.87
2022-09-22T08:04:15.637Z,17.08
2022-09-22T08:06:43.773Z,17.35
2022-09-22T08:09:11.726Z,17.81
2022-09-22T08:11:41.107Z,17.93
2022-09-22T08:14:09.690Z,18.03
2022-09-22T08:16:39.575Z,17.93
2022-09-22T08:19:10.749Z,18.19
2022-09-22T08:21:47.738Z,18.20
2022-09-22T08:24:17.586Z,17.78
2022-09-22T08:26:48.372Z,17.93
2022-09-22T08:29:16.670Z,18.30
2022-09-22T08:31:45.365Z,18.30
2022-09-22T08:34:14.167Z,18.61
2022-09-22T08:36:48.706Z,19.20
2022-09-22T08:39:17.159Z,19.26
2022-09-22T08:41:55.443Z,18.97
2022-09-22T08:44:24.577Z,18.70
2022-09-22T08:46:52.528Z,18.61
2022-09-22T08:49:42.354Z,18.43
2022-09-22T08:52:15.831Z,18.57
2022-09-22T08:54:44.326Z,18.71
2022-09-22T08:57:29.317Z,18.85
2022-09-22T09:00:01.108Z,18.78
2022-09-22T09:02:36.016Z,19.14
2022-09-22T09:05:31.732Z,19.33
2022-09-22T09:08:02.658Z,19.39
2022-09-22T09:10:39.875Z,19.87
2022-09-22T09:13:20.080Z,20.10
2022-09-22T09:15:56.823Z,20.30
2022-09-22T09:18:26.876Z,20.29
2022-09-22T09:20:54.809Z,20.08
2022-09-22T09:23:24.746Z,20.15
2022-09-22T09:25:54.373Z,20.20
2022-09-22T09:28:27.905Z,20.38
2022-09-22T09:31:05.222Z,19.82
2022-09-22T09:33:34.655Z,19.53
2022-09-22T09:36:02.808Z,19.77
2022-09-22T09:38:32.287Z,20.30
2022-09-22T09:41:02.743Z,20.73
2022-09-22T09:43:33.497Z,21.30
2022-09-22T09:46:10.695Z,21.49
2022-09-22T09:48:42.171Z,21.14
2022-09-22T09:51:12.620Z,21.05
2022-09-22T09:53:43.440Z,21.57
2022-09-22T09:56:20.993Z,21.46
2022-09-22T09:59:15.116Z,21.20
2022-09-22T10:01:44.276Z,20.61
2022-09-22T10:04:19.657Z,20.57
2022-09-22T10:06:47.658Z,20.58
2022-09-22T10:09:25.106Z,20.41
2022-09-22T10:12:00.656Z,20.56
2022-09-22T10:14:31.484Z,20.46
2022-09-22T10:16:59.423Z,20.50
2022-09-22T10:19:29.641Z,20.65
2022-09-22T10:22:23.676Z,20.93
2022-09-22T10:24:59.609Z,21.22
2022-09-22T10:27:28.423Z,21.66
2022-09-22T10:30:24.025Z,21.89
2022-09-22T10:33:17.246Z,22.77
2022-09-22T10:35:46.371Z,22.87
2022-09-22T10:38:16.907Z,22.62
2022-09-22T10:40:46.172Z,22.37
2022-09-22T10:43:37.069Z,21.95
2022-09-22T10:46:17.103Z,21.29
2022-09-22T10:48:48.064Z,21.35
2022-09-22T10:51:17.596Z,21.90
2022-09-22T10:53:58.153Z,22.40
2022-09-22T10:56:30.195Z,22.71
2022-09-22T10:59:16.874Z,23.12
2022-09-22T11:01:52.901Z,22.68
2022-09-22T11:04:28.981Z,22.91
2022-09-22T11:07:23.610Z,23.36
2022-09-22T11:10:20.025Z,22.96
2022-09-22T11:12:51.615Z,23.21
2022-09-22T11:15:35.328Z,23.37
2022-09-22T11:18:27.827Z,23.41
2022-09-22T11:20:58.692Z,22.90
2022-09-22T11:23:48.414Z,22.32
2022-09-22T11:26:28.992Z,21.61
2022-09-22T11:29:12.591Z,20.91
2022-09-22T11:31:43.167Z,20.43
2022-09-22T11:34:44.118Z,20.07
2022-09-22T11:37:28.325Z,19.85
2022-09-22T11:40:04.497Z,19.62
2022-09-22T11:42:35.078Z,20.59
2022-09-22T11:45:06.156Z,21.29
2022-09-22T11:47:41.560Z,22.14
2022-09-22T11:50:24.752Z,22.56
2022-09-22T11:53:13.129Z,22.83
2022-09-22T11:55:43.222Z,23.21
2022-09-22T11:58:15.083Z,23.10
2022-09-22T12:00:45.720Z,23.11
2022-09-22T12:03:16.832Z,22.34
2022-09-22T12:05:47.891Z,21.79
2022-09-22T12:08:17.222Z,21.36
2022-09-22T12:10:45.900Z,21.37
2022-09-22T12:13:15.375Z,22.43
2022-09-22T12:15:46.854Z,24.23
2022-09-22T12:18:18.148Z,25.17
2022-09-22T12:20:56.126Z,25.93
2022-09-22T12:23:40.937Z,27.17
2022-09-22T12:26:09.659Z,27.13
2022-09-22T12:28:42.163Z,26.13
2022-09-22T12:31:12.971Z,25.31
2022-09-22T12:33:46.441Z,24.69
2022-09-22T12:36:15.835Z,23.93
2022-09-22T12:38:44.434Z,23.26
2022-09-22T12:41:17.557Z,22.57
2022-09-22T12:43:45.894Z,22.19
2022-09-22T12:46:20.965Z,21.76
2022-09-22T12:48:48.942Z,21.64
2022-09-22T12:51:30.417Z,21.38
2022-09-22T12:54:37.811Z,21.21
2022-09-22T12:57:37.970Z,20.96
2022-09-22T13:00:32.158Z,20.74
2022-09-22T13:03:01.501Z,20.45
2022-09-22T13:05:36.017Z,20.51
2022-09-22T13:08:05.408Z,20.34
2022-09-22T13:10:43.714Z,20.14
2022-09-22T13:13:12.248Z,20.26
2022-09-22T13:15:56.987Z,20.22
2022-09-22T13:18:32.616Z,20.14
2022-09-22T13:21:01.008Z,20.00
2022-09-22T13:23:30.353Z,19.86
2022-09-22T13:26:06.771Z,19.93
2022-09-22T13:28:34.851Z,20.00
2022-09-22T13:31:06.156Z,20.05
2022-09-22T13:33:35.191Z,19.98
2022-09-22T13:36:04.841Z,19.84
2022-09-22T13:38:35.606Z,19.83
2022-09-22T13:41:03.554Z,19.68
2022-09-22T13:43:33.585Z,19.28
2022-09-22T13:46:01.632Z,18.94
2022-09-22T13:48:31.382Z,18.40
2022-09-22T13:51:01.611Z,17.82
2022-09-22T13:53:29.561Z,17.58
2022-09-22T13:55:58.890Z,17.59
2022-09-22T13:58:31.588Z,17.57
2022-09-22T14:01:15.755Z,17.57
2022-09-22T14:03:43.992Z,17.74
2022-09-22T14:06:13.693Z,18.00
2022-09-22T14:08:41.751Z,18.31
2022-09-22T14:11:15.467Z,18.57
2022-09-22T14:13:44.727Z,18.88
2022-09-22T14:16:21.249Z,18.99
2022-09-22T14:18:50.226Z,18.98
2022-09-22T14:21:18.165Z,19.05
2022-09-22T14:23:47.184Z,19.07
2022-09-22T14:26:33.367Z,18.95
2022-09-22T14:29:09.288Z,18.86
2022-09-22T14:31:37.271Z,18.68
2022-09-22T14:34:07.263Z,18.48
2022-09-22T14:36:36.937Z,18.30
2022-09-22T14:39:09.905Z,18.13
2022-09-22T14:41:40.258Z,18.01
2022-09-22T14:44:26.554Z,17.93
2022-09-22T14:46:56.431Z,17.93
2022-09-22T14:49:37.588Z,18.00
2022-09-22T14:52:07.573Z,17.95
2022-09-22T14:54:36.036Z,17.91
2022-09-22T14:57:07.564Z,18.22
2022-09-22T14:59:54.271Z,18.30
2022-09-22T15:02:35.652Z,18.28
2022-09-22T15:05:04.519Z,18.28
2022-09-22T15:07:33.675Z,18.34
2022-09-22T15:10:02.487Z,18.02
2022-09-22T15:12:37.950Z,18.01
2022-09-22T15:15:16.809Z,17.93
2022-09-22T15:18:02.383Z,17.99
2022-09-22T15:20:34.982Z,17.94
2022-09-22T15:23:03.029Z,17.93
2022-09-22T15:25:30.942Z,17.82
2022-09-22T15:28:00.315Z,17.65
2022-09-22T15:30:32.223Z,17.44
2022-09-22T15:33:00.276Z,17.18
2022-09-22T15:35:28.437Z,17.02
2022-09-22T15:37:56.371Z,16.69
2022-09-22T15:40:24.850Z,16.52
2022-09-22T15:43:11.620Z,16.44
2022-09-22T15:45:47.642Z,16.30
2022-09-22T15:48:27.688Z,16.15
2022-09-22T15:50:56.073Z,15.95
2022-09-22T15:53:24.212Z,15.85
2022-09-22T15:55:52.741Z,15.74
2022-09-22T15:58:22.881Z,15.66
2022-09-22T16:00:53.224Z,15.54
2022-09-22T16:03:24.036Z,15.46
2022-09-22T16:05:56.681Z,15.23
2022-09-22T16:08:28.494Z,15.22
2022-09-22T16:10:56.857Z,15.09
2022-09-22T16:13:25.093Z,14.98
2022-09-22T16:15:54.942Z,14.91
2022-09-22T16:18:23.322Z,14.80
2022-09-22T16:20:51.858Z,14.71
2022-09-22T16:23:20.065Z,14.64
2022-09-22T16:25:53.613Z,14.53
2022-09-22T16:28:21.642Z,14.43
2022-09-22T16:30:49.772Z,14.30
2022-09-22T16:33:19.085Z,14.20
2022-09-22T16:35:47.216Z,14.16
2022-09-22T16:38:15.686Z,14.09
2022-09-22T16:40:44.358Z,14.03
2022-09-22T16:43:13.238Z,13.86
2022-09-22T16:45:58.474Z,13.76
2022-09-22T16:48:28.184Z,13.72
2022-09-22T16:50:56.251Z,13.67
2022-09-22T16:53:24.269Z,13.60
2022-09-22T16:55:52.930Z,13.49
2022-09-22T16:58:20.939Z,13.41
2022-09-22T17:00:48.979Z,13.37
2022-09-22T17:03:18.807Z,13.35
2022-09-22T17:05:48.148Z,13.05
2022-09-22T17:08:16.485Z,13.17
2022-09-22T17:10:45.098Z,13.12
2022-09-22T17:13:12.993Z,13.06
2022-09-22T17:15:43.937Z,12.96
2022-09-22T17:18:12.535Z,12.90
2022-09-22T17:20:40.451Z,12.85
2022-09-22T17:23:09.899Z,12.78
2022-09-22T17:25:38.231Z,12.66
2022-09-22T17:28:06.520Z,12.61
2022-09-22T17:30:34.487Z,12.59
2022-09-22T17:33:02.445Z,12.54
2022-09-22T17:35:30.383Z,12.49
2022-09-22T17:37:58.531Z,12.44
2022-09-22T17:40:27.860Z,12.36
2022-09-22T17:42:57.206Z,12.37
2022-09-22T17:45:25.125Z,12.35
2022-09-22T17:48:10.652Z,12.33
2022-09-22T17:50:55.983Z,12.36
2022-09-22T17:53:41.380Z,12.41
2022-09-22T17:56:13.087Z,12.40
2022-09-22T17:58:41.314Z,12.43
2022-09-22T18:01:09.221Z,12.48
2022-09-22T18:03:37.196Z,12.28
2022-09-22T18:06:09.312Z,12.43
2022-09-22T18:08:44.558Z,12.43
2022-09-22T18:11:14.211Z,12.43
2022-09-22T18:13:42.139Z,12.41
2022-09-22T18:16:21.119Z,12.38
2022-09-22T18:18:49.107Z,12.38
2022-09-22T18:21:17.639Z,12.34
2022-09-22T18:23:45.609Z,12.31
2022-09-22T18:26:17.901Z,12.28
2022-09-22T18:28:45.875Z,12.23
2022-09-22T18:31:14.357Z,12.22
2022-09-22T18:33:43.481Z,12.18
2022-09-22T18:36:11.473Z,12.15
2022-09-22T18:38:42.268Z,12.15
2022-09-22T18:41:10.211Z,12.10
2022-09-22T18:43:41.330Z,12.08
2022-09-22T18:46:09.920Z,12.08
2022-09-22T18:48:41.749Z,12.03
2022-09-22T18:51:09.756Z,11.99
2022-09-22T18:53:37.924Z,11.96
2022-09-22T18:56:10.322Z,11.90
2022-09-22T18:58:39.800Z,11.96
2022-09-22T19:01:07.741Z,11.93
2022-09-22T19:03:36.299Z,11.90
2022-09-22T19:06:04.216Z,11.91
2022-09-22T19:08:32.164Z,11.91
2022-09-22T19:11:00.133Z,11.90
2022-09-22T19:13:28.673Z,11.86
2022-09-22T19:15:58.239Z,11.80
2022-09-22T19:18:26.234Z,11.75
2022-09-22T19:20:54.169Z,11.76
2022-09-22T19:23:22.095Z,11.73
2022-09-22T19:25:51.869Z,11.69
2022-09-22T19:28:19.857Z,11.68
2022-09-22T19:30:47.852Z,11.66
2022-09-22T19:33:17.180Z,11.68
2022-09-22T19:35:45.097Z,11.65
2022-09-22T19:38:13.100Z,11.59
2022-09-22T19:40:41.076Z,11.58
2022-09-22T19:43:09.081Z,11.55
2022-09-22T19:45:37.019Z,11.52
2022-09-22T19:48:05.073Z,11.48
2022-09-22T19:50:34.371Z,11.34
2022-09-22T19:53:02.310Z,11.40
2022-09-22T19:55:30.244Z,11.48
2022-09-22T19:57:58.164Z,11.56
2022-09-22T20:00:26.866Z,11.57
2022-09-22T20:02:58.639Z,11.57
2022-09-22T20:05:29.379Z,11.57
2022-09-22T20:07:58.655Z,11.57
2022-09-22T20:10:26.555Z,11.64
2022-09-22T20:12:54.547Z,11.68
2022-09-22T20:15:22.485Z,11.75
2022-09-22T20:17:50.459Z,11.81
2022-09-22T20:20:20.531Z,11.81
2022-09-22T20:22:48.827Z,11.65
2022-09-22T20:25:21.999Z,11.80
2022-09-22T20:27:50.033Z,11.72
2022-09-22T20:30:18.213Z,11.72
2022-09-22T20:32:46.625Z,11.65
2022-09-22T20:35:15.868Z,11.65
2022-09-22T20:37:43.840Z,11.65
2022-09-22T20:40:13.446Z,11.67
2022-09-22T20:42:42.894Z,11.66
2022-09-22T20:45:11.687Z,11.68
2022-09-22T20:47:39.642Z,11.76
2022-09-22T20:50:08.272Z,11.78
2022-09-22T20:52:36.244Z,11.84
2022-09-22T20:55:04.292Z,11.84
2022-09-22T20:57:32.241Z,11.88
2022-09-22T21:00:01.884Z,11.93
2022-09-22T21:02:31.012Z,11.91
2022-09-22T21:04:59.031Z,11.91
2022-09-22T21:07:26.978Z,11.96
2022-09-22T21:10:14.833Z,11.98
2022-09-22T21:12:44.161Z,12.02
2022-09-22T21:15:14.369Z,12.13
2022-09-22T21:17:43.921Z,12.19
2022-09-22T21:20:12.143Z,12.36
2022-09-22T21:22:40.815Z,12.48
2022-09-22T21:25:11.014Z,12.57
2022-09-22T21:27:39.039Z,12.63
2022-09-22T21:30:08.421Z,12.66
2022-09-22T21:32:37.816Z,12.64
2022-09-22T21:35:06.865Z,12.59
2022-09-22T21:37:34.811Z,12.57
2022-09-22T21:40:03.222Z,12.59
2022-09-22T21:42:31.357Z,12.64
2022-09-22T21:44:59.421Z,12.67
2022-09-22T21:47:27.363Z,12.80
2022-09-22T21:49:56.666Z,12.91
2022-09-22T21:52:24.607Z,12.96
2022-09-22T21:54:52.529Z,13.03
2022-09-22T21:57:20.478Z,13.13
2022-09-22T21:59:48.432Z,13.17
2022-09-22T22:02:16.386Z,13.23
2022-09-22T22:04:46.543Z,13.24
2022-09-22T22:07:15.844Z,13.24
2022-09-22T22:09:43.753Z,13.25
2022-09-22T22:12:12.793Z,13.23
2022-09-22T22:14:41.066Z,13.23
2022-09-22T22:17:08.992Z,13.20
2022-09-22T22:19:36.897Z,13.18
2022-09-22T22:22:05.404Z,13.12
2022-09-22T22:24:40.127Z,13.16
2022-09-22T22:27:09.800Z,13.11
2022-09-22T22:29:38.654Z,13.12
2022-09-22T22:32:07.768Z,13.13
2022-09-22T22:34:35.687Z,13.22
2022-09-22T22:37:04.719Z,13.24
2022-09-22T22:39:34.043Z,13.26
2022-09-22T22:42:01.969Z,13.25
2022-09-22T22:44:29.909Z,13.22
2022-09-22T22:46:58.470Z,13.31
2022-09-22T22:49:28.253Z,13.31
2022-09-22T22:51:56.234Z,13.27
2022-09-22T22:54:24.145Z,13.17
2022-09-22T22:56:53.491Z,13.11
2022-09-22T22:59:21.589Z,13.06
2022-09-22T23:01:49.613Z,13.03
2022-09-22T23:04:17.750Z,12.98
2022-09-22T23:06:47.754Z,12.96
2022-09-22T23:09:16.808Z,12.83
2022-09-22T23:11:45.649Z,12.71
2022-09-22T23:14:16.148Z,12.60
2022-09-22T23:16:44.954Z,12.41
2022-09-22T23:19:13.924Z,12.25
2022-09-22T23:21:42.012Z,12.09
2022-09-22T23:24:09.958Z,11.90
2022-09-22T23:26:38.327Z,11.75
2022-09-22T23:29:06.855Z,11.60
2022-09-22T23:31:36.256Z,11.50
2022-09-22T23:34:04.196Z,11.39
2022-09-22T23:36:32.121Z,11.31
2022-09-22T23:39:01.937Z,11.21
2022-09-22T23:41:29.847Z,11.13
2022-09-22T23:43:57.756Z,11.05
2022-09-22T23:46:25.731Z,10.97
2022-09-22T23:48:55.881Z,10.97
2022-09-22T23:51:24.009Z,10.96
2022-09-22T23:53:51.954Z,10.98
2022-09-22T23:56:20.350Z,10.96
2022-09-22T23:58:48.267Z,11.00
